Latest Coastal Weather Observations for Albion Park

IDN60701

Issued at 2:25 am EST Wednesday 24 September 2014 (issued every 10 minutes, with the page automatically refreshed every 10 minutes)

About coastal observations | Map of coastal stations | Coastal observations for NSW | Marine services | Other Formats
Station Details ID: 068241 Name: WOLLONGONG AIRPORT Lat: -34.56 Lon: 150.79 Height: 8.0 m
Data from the previous 72 hours. | See also: Recent months at Albion Park
Date/Time
EST
Temp

°C
Wind Pressure Rain
since 9am
mm
Weather Cloud Vis
km
Sea
Height
m
Swell
Dir
 
Speed
knots
Gust
knots
hPa Trend Height
m
Period
s
Dir
24/02:00am 8.2 CALM 0 0 1023.6 - 0.0 - - 10 - - - -
24/01:30am 8.2 CALM 0 0 1024.1 - 0.0 - - 10 - - - -
24/01:00am 8.3 CALM 0 0 1024.6 - 0.0 - - 10 - - - -
24/12:30am 8.6 CALM 0 0 1024.7 - 0.0 - - 10 - - - -
24/12:00am 9.8 WSW 0 0 1025.2 - 0.0 - - 10 - - - -
 
Date/Time
EST
Temp

°C
Wind Pressure Rain
since 9am
mm
Weather Cloud Vis
km
Sea
Height
m
Swell
Dir
 
Speed
knots
Gust
knots
hPa Trend Height
m
Period
s
Dir
23/11:30pm 10.0 WSW 1 3 1025.4 - 0.0 - - 10 - - - -
23/11:00pm 10.0 CALM 0 0 1025.6 - 0.0 - - 10 - - - -
23/10:30pm 10.5 CALM 0 2 1025.9 - 0.0 - - 10 - - - -
23/10:00pm 10.7 W 5 6 1026.3 - 0.0 - - 10 - - - -
23/09:30pm 11.3 CALM 0 0 1026.3 - 0.0 - - 10 - - - -
23/09:00pm 11.6 W 2 3 1026.3 - 0.0 - - 10 - - - -
23/08:30pm 11.9 W 4 5 1026.7 - 0.0 - - 10 - - - -
23/08:00pm 12.5 W 7 8 1026.7 - 0.0 - - 10 - - - -
23/07:30pm 13.2 WNW 4 6 1026.4 - 0.0 - - 10 - - - -
23/07:00pm 16.1 N 5 8 1026.2 - 0.0 - - 10 - - - -
23/06:30pm 17.4 NNE 8 14 1025.7 - 0.0 - - 10 - - - -
23/06:00pm 17.5 NE 9 15 1025.5 - 0.0 - - 10 - - - -
23/05:30pm 18.0 NE 9 15 1025.4 - 0.0 - - 10 - - - -
23/05:00pm 18.5 NE 11 15 1025.4 - 0.0 - - 10 - - - -
23/04:30pm 19.2 NE 11 14 1025.5 - 0.0 - - 10 - - - -
23/04:00pm 19.6 NE 11 15 1025.6 - 0.0 - - 10 - - - -
23/03:30pm 20.2 ENE 12 17 1025.6 - 0.0 - - 10 - - - -
23/03:00pm 19.8 ENE 12 17 1025.6 - 0.0 - - 10 - - - -
23/02:30pm 20.3 ENE 14 18 1025.6 - 0.0 - - 10 - - - -
23/02:00pm 20.3 NE 13 17 1025.8 - 0.0 - - 10 - - - -
23/01:30pm 20.1 NE 14 18 1026.1 - 0.0 - - 10 - - - -
23/01:00pm 20.6 NE 14 17 1026.4 - 0.0 - - 10 - - - -
23/12:30pm 20.6 NE 13 16 1026.8 - 0.0 - - 10 - - - -
23/12:00pm 20.7 ENE 12 15 1027.1 - 0.0 - - 10 - - - -
23/11:30am 20.4 NE 12 14 1027.6 - 0.0 - - 10 - - - -
23/11:00am 20.4 NE 11 13 1028.1 - 0.0 - - 10 - - - -
23/10:30am 20.1 ENE 10 13 1028.4 - 0.0 - - 10 - - - -
23/10:00am 19.5 ENE 9 11 1029.0 - 0.0 - - 10 - - - -
23/09:30am 18.7 ENE 8 10 1029.3 - 0.0 - - 10 - - - -
23/09:00am 18.0 NE 4 6 1029.6 - 0.0 - - 10 - - - -
23/08:30am 16.0 CALM 0 0 1029.7 - 0.0 - - 10 - - - -
23/08:00am 13.4 CALM 0 0 1029.7 - 0.0 - - 10 - - - -
23/07:30am 11.2 CALM 0 0 1029.8 - 0.0 - - 10 - - - -
23/07:00am 8.7 CALM 0 0 1029.8 - 0.0 - - 10 - - - -
23/06:30am 6.5 CALM 0 0 1029.6 - 0.0 - - 10 - - - -
23/06:00am 5.5 CALM 0 0 1029.5 - 0.0 - - 10 - - - -
23/05:30am 5.6 CALM 0 0 1029.3 - 0.0 - - 7 - - - -
23/05:00am 5.8 CALM 0 0 1029.4 - 0.0 - - 10 - - - -
23/04:48am 6.0 CALM 0 0 1029.4 - 0.0 - - 10 - - - -
23/04:30am 5.6 CALM 0 0 1029.3 - 0.0 - - 5 - - - -
23/04:00am 6.3 CALM 0 0 1029.0 - 0.0 - - 10 - - - -
23/03:30am 6.5 CALM 0 0 1028.8 - 0.0 - - 10 - - - -
23/03:00am 6.5 W 1 3 1028.9 - 0.0 - - 10 - - - -
23/02:30am 7.1 CALM 0 0 1029.1 - 0.0 - - 8 - - - -
23/02:00am 6.9 CALM 0 0 1029.3 - 0.0 - - 10 - - - -
23/01:33am 7.2 CALM 0 0 1029.4 - 0.0 - - 7 - - - -
23/01:30am 7.3 CALM 0 0 1029.4 - 0.0 - - 8 - - - -
23/01:00am 6.9 W 3 5 1029.6 - 0.0 - - 6 - - - -
23/12:36am 7.8 CALM 0 0 1029.8 - 0.0 - - 5 - - - -
23/12:30am 8.0 CALM 0 0 1029.8 - 0.0 - - 10 - - - -
23/12:00am 8.1 CALM 0 0 1030.0 - 0.0 - - 10 - - - -
 
Date/Time
EST
Temp

°C
Wind Pressure Rain
since 9am
mm
Weather Cloud Vis
km
Sea
Height
m
Swell
Dir
 
Speed
knots
Gust
knots
hPa Trend Height
m
Period
s
Dir
22/11:30pm 8.4 CALM 0 0 1030.1 - 0.0 - - 10 - - - -
22/11:00pm 8.8 W 1 4 1030.2 - 0.0 - - 10 - - - -
22/10:30pm 9.3 CALM 0 0 1030.3 - 0.0 - - 10 - - - -
22/10:00pm 10.0 W 4 5 1030.5 - 0.0 - - 10 - - - -
22/09:30pm 10.2 WNW 4 4 1030.6 - 0.0 - - 10 - - - -
22/09:00pm 10.9 WNW 4 9 1030.5 - 0.0 - - 10 - - - -
22/08:30pm 11.2 W 6 7 1030.4 - 0.0 - - 10 - - - -
22/08:00pm 11.7 W 6 7 1030.2 - 0.0 - - 10 - - - -
22/07:30pm 12.2 W 5 6 1030.0 - 0.0 - - 10 - - - -
22/07:00pm 12.7 W 5 6 1029.7 - 0.0 - - 10 - - - -
22/06:30pm 16.6 NNE 6 9 1029.4 - 0.0 - - 10 - - - -
22/06:00pm 16.8 NE 7 9 1029.0 - 0.0 - - 10 - - - -
22/05:30pm 17.2 NE 9 11 1028.9 - 0.0 - - 10 - - - -
22/05:00pm 17.7 NE 9 12 1028.7 - 0.0 - - 10 - - - -
22/04:30pm 18.4 NE 9 12 1028.6 - 0.0 - - 10 - - - -
22/04:00pm 18.4 NE 9 12 1028.5 - 0.0 - - 10 - - - -
22/03:30pm 18.7 ENE 10 13 1028.6 - 0.0 - - 10 - - - -
22/03:00pm 18.8 NE 9 12 1028.7 - 0.0 - - 10 - - - -
22/02:30pm 18.9 NE 9 11 1028.8 - 0.0 - - 10 - - - -
22/02:00pm 19.5 ENE 9 13 1028.9 - 0.0 - - 10 - - - -
22/01:30pm 18.9 NE 10 13 1029.2 - 0.0 - - 10 - - - -
22/01:00pm 18.6 NE 11 15 1029.4 - 0.0 - - 10 - - - -
22/12:30pm 18.9 NE 10 13 1029.8 - 0.0 - - 10 - - - -
22/12:00pm 18.6 ENE 10 13 1030.3 - 0.0 - - 10 - - - -
22/11:30am 18.1 NE 10 12 1030.8 - 0.0 - - 10 - - - -
22/11:00am 17.9 ENE 9 12 1031.3 - 0.0 - - 10 - - - -
22/10:30am 17.8 ENE 8 11 1031.6 - 0.0 - - 10 - - - -
22/10:00am 17.6 ENE 6 8 1031.9 - 0.0 - - 10 - - - -
22/09:30am 17.4 NE 5 8 1032.2 - 0.0 - - 10 - - - -
22/09:00am 17.3 ENE 5 7 1032.2 - 0.0 - - 10 - - - -
22/08:30am 15.7 CALM 0 0 1032.2 - 0.0 - - 10 - - - -
22/08:00am 13.9 CALM 0 0 1032.2 - 0.0 - - 10 - - - -
22/07:30am 11.7 CALM 0 0 1032.1 - 0.0 - - 10 - - - -
22/07:00am 9.4 CALM 0 0 1031.8 - 0.0 - - 10 - - - -
22/06:30am 7.8 W 4 5 1031.3 - 0.0 - - 10 - - - -
22/06:00am 7.0 CALM 0 0 1031.0 - 0.0 - - 10 - - - -
22/05:30am 8.0 W 3 4 1030.6 - 0.0 - - 10 - - - -
22/05:00am 7.7 W 5 6 1030.2 - 0.0 - Partly cloudy 10 - - - -
22/04:30am 9.0 CALM 0 0 1030.1 - 0.0 - Cloudy 10 - - - -
22/04:00am 9.1 WNW 1 4 1030.1 - 0.0 - Cloudy 10 - - - -
22/03:30am 8.2 W 3 4 1029.9 - 0.0 - Cloudy 10 - - - -
22/03:00am 8.1 WSW 3 4 1030.1 - 0.0 - Partly cloudy 10 - - - -
22/02:30am 8.3 WSW 3 3 1030.1 - 0.0 - - 10 - - - -
22/02:00am 8.7 W 4 6 1030.2 - 0.0 - Partly cloudy 10 - - - -
22/01:30am 8.7 W 5 5 1030.5 - 0.0 - Partly cloudy 10 - - - -
22/01:00am 9.4 W 3 5 1030.7 - 0.0 - Partly cloudy 10 - - - -
22/12:30am 9.4 WSW 3 4 1031.0 - 0.0 - - 10 - - - -
22/12:00am 10.1 W 5 6 1031.1 - 0.0 - Mostly clear 10 - - - -
 
Date/Time
EST
Temp

°C
Wind Pressure Rain
since 9am
mm
Weather Cloud Vis
km
Sea
Height
m
Swell
Dir
 
Speed
knots
Gust
knots
hPa Trend Height
m
Period
s
Dir
21/11:30pm 9.9 SW 4 5 1031.3 - 0.0 - Cloudy 10 - - - -
21/11:00pm 9.6 WSW 1 4 1031.3 - 0.0 - Partly cloudy 10 - - - -
21/10:30pm 10.4 CALM 0 0 1031.5 - 0.0 - Partly cloudy 10 - - - -
21/10:00pm 11.0 CALM 0 3 1031.4 - 0.0 - - 10 - - - -
21/09:30pm 11.9 WSW 4 6 1031.3 - 0.0 - Partly cloudy 10 - - - -
21/09:00pm 12.5 SSW 5 6 1031.3 - 0.0 - Mostly cloudy 10 - - - -
21/08:30pm 13.0 SSE 3 4 1031.1 - 0.0 - Partly cloudy 10 - - - -
21/08:00pm 12.8 CALM 0 0 1030.8 - 0.0 - Cloudy 10 - - - -
21/07:30pm 13.1 SSE 4 5 1030.3 - 0.0 - Cloudy 10 - - - -
21/07:00pm 13.2 SSE 6 7 1029.9 - 0.0 - Partly cloudy 10 - - - -
21/06:30pm 13.2 S 5 6 1029.4 - 0.0 - Partly cloudy 10 - - - -
21/06:00pm 14.4 SSE 4 6 1028.9 - 0.0 - Mostly clear 10 - - - -
21/05:30pm 15.2 SE 6 8 1028.6 - 0.0 - - 10 - - - -
21/05:00pm 16.1 SE 5 8 1028.3 - 0.0 - - 10 - - - -
21/04:30pm 16.5 ESE 7 10 1028.1 - 0.0 - - 10 - - - -
21/04:00pm 16.9 SE 7 11 1028.0 - 0.0 - Partly cloudy 10 - - - -
21/03:30pm 16.5 ESE 7 12 1027.9 - 0.0 - Partly cloudy 10 - - - -
21/03:00pm 16.6 E 8 10 1027.7 - 0.0 - Partly cloudy 10 - - - -
21/02:30pm 17.6 ESE 8 11 1027.9 - 0.0 - Partly cloudy 10 - - - -
21/02:00pm 17.1 SE 9 12 1028.1 - 0.0 - Partly cloudy 10 - - - -
21/01:30pm 17.4 ESE 7 11 1028.2 - 0.0 - Partly cloudy 10 - - - -
21/01:00pm 18.0 ESE 8 13 1028.5 - 0.0 - Partly cloudy 10 - - - -
21/12:30pm 18.1 E 10 16 1028.8 - 0.0 - Partly cloudy 10 - - - -
21/12:00pm 17.2 E 10 14 1029.3 - 0.0 - Cloudy 10 - - - -
21/11:30am 17.9 E 9 15 1029.9 - 0.0 - Partly cloudy 10 - - - -
21/11:00am 18.6 SE 5 7 1030.1 - 0.0 - Partly cloudy 10 - - - -
21/10:30am 17.3 SE 6 9 1030.4 - 0.0 - Partly cloudy 10 - - - -
21/10:00am 17.2 S 7 11 1030.6 - 0.0 - Partly cloudy 10 - - - -
21/09:30am 17.0 SE 7 10 1030.6 - 0.0 - Partly cloudy 10 - - - -
21/09:00am 17.0 SSE 8 11 1030.7 - 0.0 - Mostly clear 10 - - - -
21/08:30am 16.1 S 8 11 1030.6 - 0.0 - - 10 - - - -
21/08:00am 14.5 WNW 3 4 1030.3 - 0.0 - - 10 - - - -
21/07:30am 12.0 WSW 2 4 1029.8 - 0.0 - - 10 - - - -
21/07:00am 9.5 WNW 3 5 1029.4 - 0.0 - - 10 - - - -
21/06:30am 7.5 CALM 0 2 1029.0 - 0.0 - - 10 - - - -
21/06:00am 6.5 SW 3 5 1028.5 - 0.0 - - 10 - - - -
21/05:30am 6.7 WSW 3 6 1028.3 - 0.0 - - 10 - - - -
21/05:00am 6.9 WSW 5 6 1027.9 - 0.0 - - 10 - - - -
21/04:30am 7.5 W 4 6 1027.7 - 0.0 - - 10 - - - -
21/04:00am 7.9 WSW 5 6 1027.5 - 0.0 - - 10 - - - -
21/03:30am 8.6 W 4 6 1027.5 - 0.0 - - 10 - - - -
21/03:00am 8.3 W 5 6 1027.3 - 0.0 - - 10 - - - -
21/02:30am 8.9 W 6 8 1027.6 - 0.0 - - 10 - - - -

Other Formats:

Comma delimited format used in spreadsheet applications
http://www.bom.gov.au/fwo/IDN60701/IDN60701.95748.axf

JavaScript Object Notation format (JSON) in row-major order
http://www.bom.gov.au/fwo/IDN60701/IDN60701.95748.json